Time;durP1;ratioP1;P1;durP2;ratioP2;P2;SDS_P1;SDS_P2;PMS_P1;PMS_P2;Temp;Humidity;BMP_temperature;BMP_pressure;BME280_temperature;BME280_humidity;BME280_pressure;Samples;Min_cycle;Max_cycle;Signal;HPM_P1;HPM_P2
2023/03/27 00:01:42;;;;;;;4.57;1.33;;;4.30;99.90;;;;;;5036861;28;20207;-82
2023/03/27 00:04:09;;;;;;;7.27;1.10;;;4.30;99.90;;;;;;5036902;28;20254;-79
2023/03/27 00:06:36;;;;;;;9.50;1.60;;;4.40;99.90;;;;;;5037910;28;20196;-79
2023/03/27 00:09:07;;;;;;;3.73;0.90;;;4.50;99.90;;;;;;5035984;28;20206;-80
2023/03/27 00:11:34;;;;;;;5.77;1.10;;;4.40;99.90;;;;;;5037025;28;20203;-79
2023/03/27 00:14:01;;;;;;;4.33;0.87;;;4.40;99.90;;;;;;5037481;28;20211;-81
2023/03/27 00:16:28;;;;;;;5.40;0.97;;;4.40;99.90;;;;;;5038159;28;20207;-79
2023/03/27 00:18:56;;;;;;;7.43;1.33;;;4.50;99.90;;;;;;5036756;28;20204;-82
2023/03/27 00:21:24;;;;;;;7.73;1.00;;;4.40;99.90;;;;;;5037631;28;20696;-82
2023/03/27 00:23:53;;;;;;;5.90;1.23;;;4.40;99.90;;;;;;5036350;28;20730;-82
2023/03/27 00:26:21;;;;;;;1.40;0.80;;;4.30;99.90;;;;;;5037284;28;20228;-82
2023/03/27 00:28:48;;;;;;;3.33;0.87;;;4.50;99.90;;;;;;5037517;28;20271;-82
2023/03/27 00:31:16;;;;;;;2.73;0.93;;;4.50;99.90;;;;;;5036536;28;20583;-82
2023/03/27 00:33:43;;;;;;;7.10;1.10;;;4.30;99.90;;;;;;5037143;28;20703;-81
2023/03/27 00:36:14;;;;;;;5.47;1.07;;;4.30;99.90;;;;;;5036477;28;20203;-82
2023/03/27 00:38:42;;;;;;;3.67;0.70;;;4.20;99.90;;;;;;5036430;28;20775;-82
2023/03/27 00:41:09;;;;;;;4.03;0.73;;;4.20;99.90;;;;;;5036825;28;20286;-82
2023/03/27 00:43:41;;;;;;;5.00;0.97;;;4.10;99.90;;;;;;5037134;28;20699;-83
2023/03/27 00:46:17;;;;;;;2.43;0.90;;;4.10;99.90;;;;;;5036678;28;20196;-81
2023/03/27 00:48:47;;;;;;;8.70;1.13;;;3.90;99.90;;;;;;5023031;28;20200;-81
2023/03/27 00:51:16;;;;;;;3.63;1.13;;;3.80;99.90;;;;;;5037226;28;20211;-81
2023/03/27 00:53:44;;;;;;;2.43;1.10;;;3.70;99.90;;;;;;5033818;28;20246;-81
2023/03/27 00:56:11;;;;;;;6.13;0.90;;;3.70;99.90;;;;;;5036639;28;20231;-81
2023/03/27 00:58:42;;;;;;;4.70;1.03;;;3.70;99.90;;;;;;5035663;28;20220;-82
2023/03/27 01:01:11;;;;;;;4.23;1.03;;;3.60;99.90;;;;;;5034843;28;20214;-81
2023/03/27 01:03:40;;;;;;;6.33;1.90;;;3.60;99.90;;;;;;5035218;28;20219;-81
2023/03/27 01:06:09;;;;;;;3.57;1.03;;;3.60;99.90;;;;;;5035669;28;20209;-82
2023/03/27 01:08:38;;;;;;;4.70;1.33;;;3.60;99.90;;;;;;5035313;28;20690;-82
2023/03/27 01:11:14;;;;;;;3.53;1.07;;;3.40;99.90;;;;;;5029315;28;20197;-82
2023/03/27 01:13:54;;;;;;;6.70;1.10;;;3.40;99.90;;;;;;5019363;28;20219;-81
2023/03/27 01:16:26;;;;;;;2.90;1.30;;;3.30;99.90;;;;;;5035615;28;20566;-81
2023/03/27 01:19:03;;;;;;;4.37;1.20;;;3.30;99.90;;;;;;5033832;28;20219;-82
2023/03/27 01:21:57;;;;;;;6.07;0.90;;;3.30;99.90;;;;;;5035087;28;20641;-82
2023/03/27 01:24:55;;;;;;;4.27;1.03;;;3.20;99.90;;;;;;5034924;28;20200;-81
2023/03/27 01:27:36;;;;;;;3.23;1.20;;;3.10;99.90;;;;;;5034655;28;20338;-82
2023/03/27 01:30:15;;;;;;;5.70;1.37;;;3.00;99.90;;;;;;5035561;28;20271;-82
2023/03/27 01:33:11;;;;;;;6.07;1.43;;;3.00;99.90;;;;;;5034622;28;20285;-81
2023/03/27 01:36:26;;;;;;;4.73;1.23;;;2.90;99.90;;;;;;5013449;28;20282;-82
2023/03/27 01:39:28;;;;;;;5.40;1.77;;;2.80;99.90;;;;;;5033273;28;20226;-81
2023/03/27 01:42:04;;;;;;;4.03;1.00;;;2.80;99.90;;;;;;5014884;28;20204;-82
2023/03/27 01:44:37;;;;;;;2.67;0.97;;;2.80;99.90;;;;;;5027713;28;20211;-82
2023/03/27 01:47:10;;;;;;;3.93;1.27;;;2.70;99.90;;;;;;5033802;28;20200;-82
2023/03/27 01:49:41;;;;;;;5.73;1.00;;;2.70;99.90;;;;;;5034577;28;20207;-82
2023/03/27 01:52:13;;;;;;;4.10;1.30;;;2.60;99.90;;;;;;5034123;28;20220;-82
2023/03/27 01:54:45;;;;;;;2.53;1.00;;;2.60;99.90;;;;;;5033988;28;20200;-82
2023/03/27 01:57:21;;;;;;;3.23;1.20;;;2.60;99.90;;;;;;5025373;28;20199;-81
2023/03/27 01:59:53;;;;;;;2.57;0.90;;;2.60;99.90;;;;;;5033946;28;20278;-82
2023/03/27 02:02:25;;;;;;;5.80;1.07;;;2.60;99.90;;;;;;5034179;28;20251;-82
2023/03/27 02:04:56;;;;;;;5.17;1.30;;;2.50;99.90;;;;;;5034074;28;20648;-82
2023/03/27 02:07:29;;;;;;;6.37;1.43;;;2.50;99.90;;;;;;5034189;28;20198;-82
2023/03/27 02:10:01;;;;;;;4.70;1.00;;;2.30;99.90;;;;;;5033514;28;20632;-81
2023/03/27 02:12:32;;;;;;;7.00;1.27;;;2.40;99.90;;;;;;5034088;28;20220;-81
2023/03/27 02:15:06;;;;;;;6.53;1.30;;;2.40;99.90;;;;;;5033679;28;20206;-82
2023/03/27 02:17:37;;;;;;;4.23;1.20;;;2.30;99.90;;;;;;5033431;28;20215;-82
2023/03/27 02:20:10;;;;;;;5.97;1.93;;;2.30;99.90;;;;;;5032938;28;20199;-81
2023/03/27 02:22:38;;;;;;;5.57;1.13;;;2.20;99.90;;;;;;5033195;28;20704;-82
2023/03/27 02:25:26;;;;;;;6.40;1.50;;;2.10;99.90;;;;;;5033846;28;20196;-81
2023/03/27 02:28:05;;;;;;;5.70;1.30;;;2.10;99.90;;;;;;5033579;28;20576;-82
2023/03/27 02:30:38;;;;;;;6.73;2.67;;;2.10;99.90;;;;;;5033586;28;20199;-81
2023/03/27 02:33:14;;;;;;;3.70;1.13;;;2.00;99.90;;;;;;5032579;28;20235;-82
2023/03/27 02:35:52;;;;;;;4.70;1.20;;;1.80;99.90;;;;;;5033170;28;20549;-81
2023/03/27 02:38:24;;;;;;;4.50;1.40;;;1.90;99.90;;;;;;5033097;28;20310;-82
2023/03/27 02:41:00;;;;;;;5.60;1.40;;;2.00;99.90;;;;;;5032676;28;20210;-79
2023/03/27 02:43:33;;;;;;;3.47;1.57;;;2.00;99.90;;;;;;5033349;28;20630;-80
2023/03/27 02:46:05;;;;;;;4.37;1.37;;;1.80;99.90;;;;;;5033672;28;20196;-80
2023/03/27 02:48:34;;;;;;;4.33;1.13;;;1.80;99.90;;;;;;5033795;28;20200;-81
2023/03/27 02:51:06;;;;;;;5.63;1.07;;;1.90;99.90;;;;;;5033505;28;20200;-80
2023/03/27 02:53:38;;;;;;;3.83;1.10;;;1.70;99.90;;;;;;5033714;28;20216;-80
2023/03/27 02:56:09;;;;;;;2.90;1.20;;;1.70;99.90;;;;;;5034573;28;20210;-80
2023/03/27 02:58:39;;;;;;;3.80;1.40;;;1.70;99.90;;;;;;5033939;28;20211;-80
2023/03/27 03:01:09;;;;;;;6.30;1.37;;;1.70;99.90;;;;;;5033701;28;20192;-80
2023/03/27 03:03:40;;;;;;;6.73;1.50;;;1.70;99.90;;;;;;5033848;28;20577;-80
2023/03/27 03:06:09;;;;;;;4.33;0.90;;;1.80;99.90;;;;;;5033326;28;20249;-80
2023/03/27 03:08:38;;;;;;;6.00;1.60;;;1.70;99.90;;;;;;5032697;28;20222;-80
2023/03/27 03:11:13;;;;;;;4.53;1.30;;;1.80;99.90;;;;;;5017178;28;20621;-80
2023/03/27 03:13:40;;;;;;;3.80;1.40;;;1.70;99.90;;;;;;5023158;28;20315;-80
2023/03/27 03:16:08;;;;;;;4.37;1.37;;;1.80;99.90;;;;;;5034055;28;20211;-82
2023/03/27 03:18:35;;;;;;;4.43;1.80;;;1.80;99.90;;;;;;5033621;28;20222;-82
2023/03/27 03:21:03;;;;;;;5.40;1.47;;;1.60;99.90;;;;;;5022668;28;20239;-85
2023/03/27 03:23:30;;;;;;;8.40;3.10;;;1.70;99.90;;;;;;5033440;28;20219;-83
2023/03/27 03:25:57;;;;;;;8.87;2.20;;;1.60;99.90;;;;;;5032508;28;20714;-81
2023/03/27 03:28:28;;;;;;;5.37;1.60;;;1.70;99.90;;;;;;5034087;28;20200;-83
2023/03/27 03:30:57;;;;;;;9.77;1.97;;;1.50;99.90;;;;;;5033801;28;20230;-83
2023/03/27 03:33:24;;;;;;;6.77;1.83;;;1.50;99.90;;;;;;5033645;28;20289;-84
2023/03/27 03:35:51;;;;;;;5.13;1.43;;;1.60;99.90;;;;;;5035782;28;20261;-84
2023/03/27 03:38:23;;;;;;;5.13;1.07;;;1.50;99.90;;;;;;5037113;28;20311;-84
2023/03/27 03:40:52;;;;;;;3.43;1.27;;;1.50;99.90;;;;;;5037894;28;20203;-83
2023/03/27 03:43:20;;;;;;;7.33;1.70;;;1.50;99.90;;;;;;5037882;28;20281;-83
2023/03/27 03:45:48;;;;;;;7.93;1.63;;;1.50;99.90;;;;;;5037171;28;20235;-82
2023/03/27 03:48:15;;;;;;;3.90;1.30;;;1.50;99.90;;;;;;5037587;28;20208;-81
2023/03/27 03:50:43;;;;;;;3.83;1.17;;;1.50;99.90;;;;;;5037916;28;20207;-81
2023/03/27 03:53:10;;;;;;;5.40;1.17;;;1.50;99.90;;;;;;5037662;28;20232;-81
2023/03/27 03:55:37;;;;;;;5.33;1.40;;;1.40;99.90;;;;;;5038061;28;20203;-81
2023/03/27 03:58:04;;;;;;;6.97;1.60;;;1.40;99.90;;;;;;5037224;28;20219;-81
2023/03/27 04:00:33;;;;;;;4.00;1.20;;;1.40;99.90;;;;;;5037673;28;20200;-81
2023/03/27 04:03:03;;;;;;;4.07;1.50;;;1.50;99.90;;;;;;5037967;28;20239;-81
2023/03/27 04:05:30;;;;;;;6.60;2.00;;;1.50;99.90;;;;;;5037561;28;20210;-81
2023/03/27 04:07:58;;;;;;;4.60;1.57;;;1.50;99.90;;;;;;5036953;28;20286;-81
2023/03/27 04:10:25;;;;;;;4.93;1.40;;;1.50;99.90;;;;;;5037994;28;20261;-81
2023/03/27 04:12:52;;;;;;;9.23;1.77;;;1.50;99.90;;;;;;5037171;28;20227;-81
2023/03/27 04:15:19;;;;;;;5.73;1.50;;;1.50;99.90;;;;;;5036446;28;20211;-81
2023/03/27 04:17:47;;;;;;;7.87;1.60;;;1.50;99.90;;;;;;5036731;28;20204;-81
2023/03/27 04:20:16;;;;;;;7.73;1.50;;;1.60;99.90;;;;;;5036809;28;20267;-83
2023/03/27 04:22:45;;;;;;;5.43;1.50;;;1.50;99.90;;;;;;5037075;28;20302;-84
2023/03/27 04:25:14;;;;;;;5.00;1.70;;;1.60;99.90;;;;;;5036944;28;20209;-84
2023/03/27 04:27:42;;;;;;;6.93;1.63;;;1.60;99.90;;;;;;5036761;28;20210;-83
2023/03/27 04:30:12;;;;;;;6.10;1.77;;;1.50;99.90;;;;;;5036616;28;20212;-83
2023/03/27 04:32:40;;;;;;;8.00;1.67;;;1.50;99.90;;;;;;5036660;28;20242;-84
2023/03/27 04:35:09;;;;;;;6.90;1.50;;;1.40;99.90;;;;;;5036988;28;20207;-84
2023/03/27 04:37:39;;;;;;;6.47;1.70;;;1.40;99.90;;;;;;5037026;28;20207;-83
2023/03/27 04:40:08;;;;;;;8.20;2.30;;;1.50;99.90;;;;;;5036106;28;20223;-84
2023/03/27 04:42:34;;;;;;;6.80;1.63;;;1.50;99.90;;;;;;5036035;28;20235;-83
2023/03/27 04:45:03;;;;;;;7.53;1.70;;;1.50;99.90;;;;;;5036291;28;20204;-83
2023/03/27 04:47:30;;;;;;;3.63;1.50;;;1.50;99.90;;;;;;5036799;28;20698;-83
2023/03/27 04:49:58;;;;;;;6.23;1.60;;;1.60;99.90;;;;;;5035945;28;20204;-83
2023/03/27 04:52:28;;;;;;;7.77;1.83;;;1.60;99.90;;;;;;5036288;28;20228;-83
2023/03/27 04:54:57;;;;;;;9.50;1.50;;;1.60;99.90;;;;;;5037072;28;20243;-84
2023/03/27 04:57:26;;;;;;;7.63;1.70;;;1.70;99.90;;;;;;5036793;28;20227;-83
2023/03/27 04:59:53;;;;;;;5.00;1.77;;;1.70;99.90;;;;;;5036138;28;20636;-83
2023/03/27 05:02:20;;;;;;;5.87;1.60;;;1.80;99.90;;;;;;5036729;28;20227;-83
2023/03/27 05:04:47;;;;;;;6.20;1.80;;;1.70;99.90;;;;;;5036549;28;20222;-84
2023/03/27 05:07:15;;;;;;;4.80;1.73;;;1.70;99.90;;;;;;5035776;28;20231;-84
2023/03/27 05:09:42;;;;;;;7.43;1.73;;;1.60;99.90;;;;;;5035853;28;20678;-84
2023/03/27 05:12:10;;;;;;;6.20;1.27;;;1.60;99.90;;;;;;5035358;28;20234;-84
2023/03/27 05:14:36;;;;;;;6.10;1.53;;;1.60;99.90;;;;;;5035996;28;20706;-83
2023/03/27 05:17:03;;;;;;;4.10;1.30;;;1.70;99.90;;;;;;5035545;28;20563;-81
2023/03/27 05:19:30;;;;;;;5.67;1.60;;;1.60;99.90;;;;;;5035049;28;20219;-81
2023/03/27 05:21:57;;;;;;;6.03;1.80;;;1.60;99.90;;;;;;5035455;28;20230;-81
2023/03/27 05:24:24;;;;;;;4.70;1.40;;;1.60;99.90;;;;;;5035941;28;20257;-81
2023/03/27 05:26:51;;;;;;;6.20;1.53;;;1.60;99.90;;;;;;5036243;28;20203;-81
2023/03/27 05:29:19;;;;;;;7.33;1.70;;;1.60;99.90;;;;;;5035523;28;20196;-81
2023/03/27 05:31:45;;;;;;;5.70;1.97;;;1.70;99.90;;;;;;5034448;28;20195;-81
2023/03/27 05:34:12;;;;;;;7.33;1.80;;;1.70;99.90;;;;;;5034938;28;20200;-81
2023/03/27 05:36:39;;;;;;;8.00;2.00;;;1.70;99.90;;;;;;5035257;28;20226;-81
2023/03/27 05:39:06;;;;;;;6.70;1.60;;;1.80;99.90;;;;;;5035201;28;20223;-81
2023/03/27 05:41:33;;;;;;;3.57;1.50;;;2.00;99.90;;;;;;5035041;28;20302;-83
2023/03/27 05:44:02;;;;;;;6.97;1.70;;;2.20;99.90;;;;;;5035208;28;20298;-83
2023/03/27 05:46:30;;;;;;;4.53;1.70;;;2.10;99.90;;;;;;5035398;28;20242;-83
2023/03/27 05:48:58;;;;;;;4.87;1.80;;;1.90;99.90;;;;;;5035531;28;20550;-83
2023/03/27 05:51:26;;;;;;;5.73;1.97;;;1.90;99.90;;;;;;5035397;28;20208;-83
2023/03/27 05:53:53;;;;;;;7.73;2.80;;;2.00;99.90;;;;;;5035054;28;20266;-83
2023/03/27 05:56:19;;;;;;;7.27;3.00;;;2.00;99.90;;;;;;5033756;28;20208;-83
2023/03/27 05:58:46;;;;;;;7.40;2.27;;;2.40;99.90;;;;;;5033938;28;20319;-83
2023/03/27 06:01:13;;;;;;;5.27;2.00;;;3.10;99.90;;;;;;5034295;28;20200;-83
2023/03/27 06:03:41;;;;;;;7.10;1.37;;;3.20;99.90;;;;;;5034131;28;20266;-84
2023/03/27 06:06:09;;;;;;;7.10;1.80;;;3.80;99.90;;;;;;5034454;28;20554;-83
2023/03/27 06:08:36;;;;;;;2.53;1.27;;;4.00;99.90;;;;;;5034223;28;20211;-83
2023/03/27 06:11:08;;;;;;;6.93;1.47;;;4.30;99.90;;;;;;5033864;28;20693;-83
2023/03/27 06:13:35;;;;;;;3.43;1.30;;;5.10;99.90;;;;;;5034289;28;20293;-83
2023/03/27 06:16:04;;;;;;;5.93;1.60;;;5.10;99.90;;;;;;5034016;28;20207;-83
2023/03/27 06:18:31;;;;;;;2.43;1.07;;;5.60;99.90;;;;;;5034621;28;20208;-84
2023/03/27 06:20:59;;;;;;;5.73;1.30;;;5.20;99.90;;;;;;5035636;28;20203;-84
2023/03/27 06:23:26;;;;;;;4.23;1.20;;;4.90;99.90;;;;;;5035602;28;20232;-82
2023/03/27 06:25:53;;;;;;;5.93;1.10;;;3.90;99.90;;;;;;5034888;28;20254;-82
2023/03/27 06:28:20;;;;;;;4.83;1.33;;;3.50;99.90;;;;;;5034610;28;20302;-82
2023/03/27 06:30:48;;;;;;;4.43;1.13;;;3.70;99.90;;;;;;5035174;28;20215;-82
2023/03/27 06:33:15;;;;;;;9.13;1.97;;;3.60;99.90;;;;;;5034775;28;20232;-81
2023/03/27 06:35:44;;;;;;;4.30;1.20;;;3.80;99.90;;;;;;5034946;28;20290;-82
2023/03/27 06:38:14;;;;;;;6.30;1.23;;;3.40;99.90;;;;;;5034927;28;20720;-82
2023/03/27 06:40:41;;;;;;;3.03;1.70;;;3.40;99.90;;;;;;5034519;28;20310;-82
2023/03/27 06:43:09;;;;;;;5.63;1.70;;;3.90;99.90;;;;;;5033891;28;20285;-82
2023/03/27 06:45:38;;;;;;;8.33;1.80;;;4.20;99.90;;;;;;5034282;28;20297;-82
2023/03/27 06:48:06;;;;;;;4.40;1.50;;;4.00;99.90;;;;;;5034274;28;20219;-81
2023/03/27 06:50:34;;;;;;;3.73;1.30;;;3.90;99.90;;;;;;5034434;28;20199;-82
2023/03/27 06:53:01;;;;;;;2.87;1.23;;;4.00;99.90;;;;;;5033966;28;20230;-82
2023/03/27 06:55:30;;;;;;;4.67;1.97;;;4.60;99.90;;;;;;5034490;28;20199;-81
2023/03/27 06:57:58;;;;;;;4.27;1.80;;;4.20;99.90;;;;;;5034029;28;20290;-82
2023/03/27 07:00:27;;;;;;;2.93;1.07;;;3.90;99.90;;;;;;5033821;28;20246;-81
2023/03/27 07:02:55;;;;;;;5.60;1.93;;;3.70;99.90;;;;;;5034579;28;20650;-81
2023/03/27 07:05:22;;;;;;;3.23;1.60;;;3.50;99.90;;;;;;5034293;28;20199;-82
2023/03/27 07:07:50;;;;;;;9.37;1.93;;;3.40;99.90;;;;;;5035434;28;20199;-80
2023/03/27 07:10:17;;;;;;;3.27;1.47;;;3.40;99.90;;;;;;5038165;28;20827;-81
2023/03/27 07:12:47;;;;;;;4.33;1.77;;;3.60;99.90;;;;;;5037944;28;20239;-81
2023/03/27 07:15:13;;;;;;;3.17;1.40;;;3.30;99.90;;;;;;5038388;28;20204;-81
2023/03/27 07:17:42;;;;;;;7.10;1.80;;;3.30;99.90;;;;;;5038194;28;20204;-81
2023/03/27 07:20:10;;;;;;;6.37;1.70;;;3.60;99.90;;;;;;5037909;28;20353;-81
2023/03/27 07:22:37;;;;;;;5.60;1.77;;;4.30;99.90;;;;;;5038215;28;20318;-82
2023/03/27 07:25:05;;;;;;;5.03;1.80;;;5.20;99.90;;;;;;5038578;28;20199;-81
2023/03/27 07:27:32;;;;;;;4.40;1.30;;;5.10;99.90;;;;;;5038202;28;20211;-81
2023/03/27 07:30:00;;;;;;;5.87;1.83;;;4.80;99.90;;;;;;5037674;28;20206;-83
2023/03/27 07:32:28;;;;;;;3.57;1.63;;;4.80;99.90;;;;;;5038490;28;20258;-82
2023/03/27 07:34:55;;;;;;;7.73;1.97;;;4.60;99.90;;;;;;5038317;28;20678;-82
2023/03/27 07:37:22;;;;;;;5.70;2.13;;;5.40;99.90;;;;;;5038572;28;20218;-82
2023/03/27 07:39:49;;;;;;;4.17;1.80;;;5.80;99.90;;;;;;5038080;28;20215;-82
2023/03/27 07:42:16;;;;;;;4.87;1.57;;;5.80;99.90;;;;;;5038377;28;20223;-83
2023/03/27 07:44:42;;;;;;;6.07;1.70;;;5.80;99.90;;;;;;5038272;28;20203;-82
2023/03/27 07:47:11;;;;;;;10.20;2.17;;;5.90;99.90;;;;;;5037854;28;20570;-83
2023/03/27 07:49:38;;;;;;;7.37;1.80;;;7.10;99.90;;;;;;5037850;28;20206;-82
2023/03/27 07:52:05;;;;;;;7.37;1.97;;;6.50;99.90;;;;;;5037804;28;20228;-82
2023/03/27 07:54:32;;;;;;;6.77;2.03;;;6.80;99.90;;;;;;5038436;28;20204;-83
2023/03/27 07:56:58;;;;;;;2.97;1.27;;;7.00;99.90;;;;;;5038203;28;20749;-82
2023/03/27 07:59:26;;;;;;;6.43;1.73;;;7.10;99.90;;;;;;5037827;28;20216;-82
2023/03/27 08:01:54;;;;;;;6.00;1.77;;;6.80;99.90;;;;;;5038380;28;20598;-82
2023/03/27 08:04:23;;;;;;;6.07;1.67;;;7.20;99.90;;;;;;5038404;28;20211;-82
2023/03/27 08:06:53;;;;;;;4.37;1.60;;;7.10;99.90;;;;;;5037825;28;20207;-82
2023/03/27 08:09:20;;;;;;;7.33;2.10;;;7.10;99.90;;;;;;5037540;28;20622;-83
2023/03/27 08:11:49;;;;;;;4.87;1.80;;;6.40;99.90;;;;;;5037815;28;20216;-83
2023/03/27 08:14:16;;;;;;;6.47;1.70;;;7.10;99.90;;;;;;5037895;28;20258;-84
2023/03/27 08:16:42;;;;;;;4.00;1.50;;;6.50;99.90;;;;;;5037576;28;20204;-83
2023/03/27 08:19:10;;;;;;;4.27;1.30;;;6.40;99.90;;;;;;5037015;28;20565;-83
2023/03/27 08:21:38;;;;;;;9.20;1.70;;;6.40;99.90;;;;;;5037536;28;20250;-82
2023/03/27 08:24:06;;;;;;;3.40;1.43;;;6.50;99.90;;;;;;5037937;28;20211;-83
2023/03/27 08:26:33;;;;;;;8.17;1.70;;;6.20;99.90;;;;;;5038251;28;20196;-82
2023/03/27 08:28:59;;;;;;;6.60;1.67;;;6.30;99.90;;;;;;5037601;28;20200;-81
2023/03/27 08:31:29;;;;;;;3.33;1.53;;;6.50;99.90;;;;;;5037296;28;20200;-81
2023/03/27 08:33:56;;;;;;;6.77;1.53;;;6.40;99.90;;;;;;5036937;28;20232;-82
2023/03/27 08:36:23;;;;;;;6.03;1.43;;;6.20;99.90;;;;;;5036834;28;20195;-82
2023/03/27 08:38:53;;;;;;;4.43;1.50;;;6.40;99.90;;;;;;5036334;28;20613;-82
2023/03/27 08:41:29;;;;;;;4.63;1.67;;;6.40;99.90;;;;;;5036882;28;20219;-82
2023/03/27 08:44:02;;;;;;;6.13;1.53;;;6.80;99.90;;;;;;5036738;28;20267;-83
2023/03/27 08:46:34;;;;;;;4.63;2.10;;;6.80;99.90;;;;;;5036859;28;20286;-82
2023/03/27 08:49:07;;;;;;;6.77;2.00;;;7.00;99.90;;;;;;5036901;28;20215;-82
2023/03/27 08:51:38;;;;;;;5.37;1.33;;;7.00;99.90;;;;;;5037056;28;20250;-83
2023/03/27 08:54:09;;;;;;;5.20;1.43;;;7.30;99.90;;;;;;5037215;28;20203;-83
2023/03/27 08:56:37;;;;;;;3.00;1.70;;;7.30;99.90;;;;;;5036872;28;20219;-83
2023/03/27 08:59:06;;;;;;;3.43;1.33;;;7.00;99.90;;;;;;5037321;28;20211;-83
2023/03/27 09:01:40;;;;;;;2.17;1.20;;;7.00;99.90;;;;;;5037075;28;20238;-81
2023/03/27 09:04:18;;;;;;;6.53;1.50;;;7.00;99.90;;;;;;5036737;28;20683;-82
2023/03/27 09:06:51;;;;;;;6.73;1.80;;;7.60;99.90;;;;;;5036727;28;20204;-82
2023/03/27 09:09:31;;;;;;;8.80;1.90;;;6.60;99.90;;;;;;5036198;28;20204;-83
2023/03/27 09:12:04;;;;;;;6.13;1.80;;;6.40;99.90;;;;;;5036363;28;20225;-83
2023/03/27 09:14:35;;;;;;;7.47;2.00;;;6.80;99.90;;;;;;5036645;28;20424;-83
2023/03/27 09:17:10;;;;;;;7.80;1.90;;;6.70;99.90;;;;;;5036787;28;20196;-83
2023/03/27 09:19:45;;;;;;;11.20;2.17;;;6.70;99.90;;;;;;5036316;28;20209;-83
2023/03/27 09:22:16;;;;;;;4.03;1.73;;;6.90;99.90;;;;;;5036778;28;20608;-83
2023/03/27 09:24:47;;;;;;;9.00;1.93;;;7.80;99.90;;;;;;5037013;28;20210;-83
2023/03/27 09:27:19;;;;;;;4.67;1.43;;;8.00;99.90;;;;;;5037049;28;20559;-83
2023/03/27 09:29:53;;;;;;;4.40;1.20;;;7.70;99.90;;;;;;5036390;28;20214;-82
2023/03/27 09:32:19;;;;;;;3.67;1.20;;;7.00;99.90;;;;;;5035888;28;20220;-83
2023/03/27 09:34:46;;;;;;;2.97;1.30;;;7.00;99.90;;;;;;5035374;28;20192;-83
2023/03/27 09:37:16;;;;;;;4.23;1.20;;;6.80;99.90;;;;;;5036203;28;20239;-83
2023/03/27 09:39:48;;;;;;;2.03;1.37;;;7.10;99.90;;;;;;5035997;28;20680;-83
2023/03/27 09:42:18;;;;;;;4.73;1.67;;;7.20;99.90;;;;;;5035705;28;20588;-83
2023/03/27 09:44:49;;;;;;;6.27;1.50;;;7.60;99.90;;;;;;5036344;28;20182;-82
2023/03/27 09:47:19;;;;;;;4.30;2.37;;;7.30;99.90;;;;;;5036431;28;20212;-83
2023/03/27 09:49:50;;;;;;;3.17;1.53;;;7.40;99.90;;;;;;5036035;28;20294;-83
2023/03/27 09:52:33;;;;;;;6.23;1.40;;;7.60;99.90;;;;;;5035848;28;20246;-83
2023/03/27 09:55:02;;;;;;;1.40;1.30;;;8.30;99.90;;;;;;5036216;28;20635;-83
2023/03/27 09:57:32;;;;;;;3.90;1.80;;;8.50;99.90;;;;;;5036022;28;20215;-83
2023/03/27 10:00:06;;;;;;;5.07;2.13;;;8.10;99.90;;;;;;5035559;28;20311;-83
2023/03/27 10:02:33;;;;;;;4.30;1.40;;;8.00;99.90;;;;;;5035285;28;20235;-83
2023/03/27 10:05:03;;;;;;;5.60;1.20;;;7.60;57.30;;;;;;5035667;28;20294;-83
2023/03/27 10:07:30;;;;;;;5.37;1.33;;;7.40;1.00;;;;;;5035801;28;20703;-83
2023/03/27 10:10:07;;;;;;;3.93;1.20;;;7.40;55.20;;;;;;5035692;28;20207;-84
2023/03/27 10:12:36;;;;;;;2.40;1.20;;;6.90;59.40;;;;;;5035973;28;20821;-82
2023/03/27 10:15:04;;;;;;;2.67;0.93;;;7.60;99.90;;;;;;5036758;28;20212;-83
2023/03/27 10:17:36;;;;;;;2.43;1.10;;;8.40;99.90;;;;;;5035717;28;20690;-82
2023/03/27 10:20:09;;;;;;;4.37;1.40;;;7.90;99.90;;;;;;5035367;28;20223;-82
2023/03/27 10:22:40;;;;;;;2.47;1.17;;;7.70;99.90;;;;;;5035688;28;20228;-83
2023/03/27 10:25:16;;;;;;;4.13;1.20;;;7.60;92.20;;;;;;5035946;28;20207;-82
2023/03/27 10:27:43;;;;;;;3.10;0.90;;;7.90;99.90;;;;;;5035514;28;20203;-82
2023/03/27 10:30:34;;;;;;;5.80;2.20;;;7.90;99.90;;;;;;5035955;28;20200;-84
2023/03/27 10:33:02;;;;;;;4.07;1.10;;;7.10;99.90;;;;;;5025142;28;20314;-82
2023/03/27 10:35:33;;;;;;;5.30;1.17;;;6.30;99.90;;;;;;5035392;28;20207;-82
2023/03/27 10:38:00;;;;;;;2.90;1.23;;;6.40;99.90;;;;;;5035311;28;20218;-83
2023/03/27 10:40:32;;;;;;;1.53;0.90;;;7.10;99.90;;;;;;5034787;28;20223;-83
2023/03/27 10:43:05;;;;;;;2.77;1.30;;;7.80;99.90;;;;;;5040358;28;20223;-83
2023/03/27 10:45:39;;;;;;;2.60;1.13;;;7.70;99.90;;;;;;5042286;28;20659;-82
2023/03/27 10:48:07;;;;;;;2.60;1.00;;;7.40;99.90;;;;;;5042001;28;20187;-83
2023/03/27 10:50:41;;;;;;;2.70;1.13;;;6.50;99.90;;;;;;5042558;28;20207;-83
2023/03/27 10:53:15;;;;;;;2.57;1.10;;;5.30;99.90;;;;;;5041639;28;20229;-83
2023/03/27 10:55:55;;;;;;;4.20;1.33;;;4.50;99.90;;;;;;5041360;28;20226;-82
2023/03/27 10:58:31;;;;;;;1.73;1.20;;;4.20;99.90;;;;;;5040694;28;20210;-82
2023/03/27 11:01:01;;;;;;;2.67;1.50;;;4.90;99.90;;;;;;5040641;28;20317;-82
2023/03/27 11:03:33;;;;;;;3.97;1.40;;;5.70;99.90;;;;;;5040630;28;20226;-82
2023/03/27 11:06:04;;;;;;;5.17;1.70;;;6.50;99.90;;;;;;5041161;28;20648;-82
2023/03/27 11:08:42;;;;;;;3.30;1.30;;;7.20;99.90;;;;;;5040742;28;20276;-83
2023/03/27 11:11:17;;;;;;;2.57;1.23;;;7.20;99.90;;;;;;5041396;28;20675;-83
2023/03/27 11:13:45;;;;;;;2.27;0.97;;;7.10;99.90;;;;;;5041481;28;20591;-83
2023/03/27 11:16:16;;;;;;;5.60;1.80;;;6.90;99.90;;;;;;5042167;28;20231;-82
2023/03/27 11:18:48;;;;;;;5.43;1.80;;;6.60;99.90;;;;;;5042062;28;20214;-83
2023/03/27 11:21:17;;;;;;;1.40;1.30;;;6.90;99.90;;;;;;5041720;28;20237;-85
2023/03/27 11:23:49;;;;;;;3.00;1.30;;;6.90;99.90;;;;;;5041840;28;20237;-83
2023/03/27 11:26:21;;;;;;;3.67;1.30;;;6.80;99.90;;;;;;5041166;28;20208;-83
2023/03/27 11:28:54;;;;;;;2.73;1.00;;;7.30;99.90;;;;;;5041139;28;20227;-83
2023/03/27 11:31:34;;;;;;;3.43;0.90;;;7.10;99.90;;;;;;5041917;28;20567;-84
2023/03/27 11:34:05;;;;;;;0.70;0.60;;;6.40;99.90;;;;;;5041882;28;20227;-82
2023/03/27 11:36:44;;;;;;;3.07;0.80;;;5.80;99.90;;;;;;5042433;28;20203;-83
2023/03/27 11:39:16;;;;;;;2.60;0.97;;;4.10;99.90;;;;;;5042362;28;20206;-85
2023/03/27 11:41:50;;;;;;;4.80;1.77;;;3.70;99.90;;;;;;5042019;28;20596;-83
2023/03/27 11:44:17;;;;;;;2.57;1.97;;;3.60;99.90;;;;;;5042216;28;20203;-83
2023/03/27 11:47:06;;;;;;;6.03;1.70;;;3.60;99.90;;;;;;5041417;28;20214;-83
2023/03/27 11:49:48;;;;;;;4.60;1.60;;;3.70;99.90;;;;;;5041150;28;20210;-83
2023/03/27 11:52:27;;;;;;;4.67;1.77;;;3.80;99.90;;;;;;5041605;28;20761;-82
2023/03/27 11:55:06;;;;;;;3.47;1.70;;;3.90;99.90;;;;;;5038238;28;20203;-83
2023/03/27 11:57:43;;;;;;;4.03;1.50;;;3.80;99.90;;;;;;5038193;28;20199;-83
2023/03/27 12:00:16;;;;;;;2.63;1.20;;;3.70;99.90;;;;;;5037940;28;20214;-82
2023/03/27 12:03:13;;;;;;;1.43;1.33;;;4.00;99.90;;;;;;5037814;28;20230;-82
2023/03/27 12:05:54;;;;;;;2.73;1.20;;;4.80;99.90;;;;;;5038046;28;20206;-83
2023/03/27 12:08:29;;;;;;;2.77;1.47;;;5.50;99.90;;;;;;5038344;28;20203;-83
2023/03/27 12:10:59;;;;;;;1.87;0.90;;;6.00;99.90;;;;;;5037869;28;20546;-82
2023/03/27 12:14:14;;;;;;;2.50;0.70;;;6.30;99.90;;;;;;5038371;28;20227;-83
2023/03/27 12:16:58;;;;;;;4.50;1.27;;;6.20;99.90;;;;;;5039664;28;20203;-84
2023/03/27 12:19:58;;;;;;;1.53;0.90;;;6.80;99.90;;;;;;5039410;28;20199;-83
2023/03/27 12:22:34;;;;;;;5.27;1.23;;;6.90;99.90;;;;;;5033833;28;20607;-83
2023/03/27 12:25:22;;;;;;;2.13;1.10;;;7.20;99.90;;;;;;5037898;28;20286;-83
2023/03/27 12:28:00;;;;;;;1.40;1.10;;;7.40;99.90;;;;;;5035839;28;20200;-83
2023/03/27 12:30:38;;;;;;;1.07;0.93;;;7.80;99.90;;;;;;5037849;28;20231;-82
2023/03/27 12:33:27;;;;;;;4.40;1.00;;;7.70;99.90;;;;;;5036564;28;20310;-83
2023/03/27 12:35:56;;;;;;;1.80;0.80;;;7.90;99.90;;;;;;5037152;28;20238;-83
2023/03/27 12:38:28;;;;;;;1.70;0.97;;;7.80;99.90;;;;;;5036967;28;20220;-82
2023/03/27 12:41:12;;;;;;;1.40;1.30;;;7.90;99.90;;;;;;5038029;28;20275;-82
2023/03/27 12:43:44;;;;;;;2.37;1.20;;;8.20;99.90;;;;;;5037124;28;20288;-82
2023/03/27 12:46:30;;;;;;;3.13;1.50;;;8.10;99.90;;;;;;5037628;28;20242;-81
2023/03/27 12:49:00;;;;;;;4.17;1.40;;;7.70;99.90;;;;;;5037575;28;20226;-80
2023/03/27 12:51:42;;;;;;;2.20;1.17;;;8.10;99.90;;;;;;5037969;28;20647;-81
2023/03/27 12:54:24;;;;;;;2.53;1.17;;;8.10;99.90;;;;;;5037571;28;20223;-80
2023/03/27 12:56:58;;;;;;;3.07;1.20;;;8.30;99.90;;;;;;5037669;28;20203;-82
2023/03/27 12:59:27;;;;;;;1.33;1.00;;;8.30;99.90;;;;;;5038792;28;20624;-80
2023/03/27 13:02:29;;;;;;;3.83;1.67;;;7.80;99.90;;;;;;5037069;28;20717;-82
2023/03/27 13:05:25;;;;;;;1.43;1.20;;;7.70;99.90;;;;;;5023270;28;20294;-80
2023/03/27 13:08:03;;;;;;;2.60;1.20;;;7.30;99.90;;;;;;5001945;28;20204;-79
2023/03/27 13:10:45;;;;;;;2.80;1.27;;;6.90;99.90;;;;;;5028350;28;20233;-79
2023/03/27 13:13:35;;;;;;;6.67;2.20;;;6.50;99.90;;;;;;5030274;28;20676;-81
2023/03/27 13:16:20;;;;;;;12.10;4.47;;;6.20;99.90;;;;;;5033082;28;20205;-81
2023/03/27 13:19:02;;;;;;;6.27;2.40;;;6.20;99.90;;;;;;5035107;28;20210;-80
2023/03/27 13:21:40;;;;;;;7.70;3.33;;;6.00;99.90;;;;;;5036150;28;20228;-80